ADDS METAR Data INFO
IDs: Format: Raw Decoded Include TAF

Data at: 1935 UTC 17 Jul 2018

METAR for:KLHQ (Lancaster/Fairfield, OH, US)
Text:KLHQ 171853Z AUTO 35010KT 10SM CLR 30/17 A2997 RMK AO2 SLP140 T03000172
Temperature: 30.0°C ( 86°F)
Dewpoint: 17.2°C ( 63°F) [RH = 46%]
Pressure (altimeter):29.97 inches Hg (1015.0 mb) [Sea level pressure: 1014.0 mb]
Winds:from the N (350 degrees) at 12 MPH (10 knots; 5.1 m/s)
Visibility:10 or more sm (16+ km)
Ceiling:at least 12,000 feet AGL
Clouds:sky clear below 12,000 feet AGL
QC Flag:automated observation with no human augmentation